Estación Meteorológica Peña el Pijo (Robertgarden) [ 07/23/17 10:55:06 CEST ]

Fecha Hora Presion(HPa) Temp (°C) Humedad % Rocio (°C) Viento ( m/s) Direccion Lluvia 1Hora(mm) Lluvia 24H(mm) LLuvia Total(mm)
2017-Jul-20 01:01:43 1009.500 22.4 42 8.5         1437.96
2017-Jul-20 02:01:41 1009.500 20.1 46 7.8         1437.96
2017-Jul-20 03:01:59 1009.200 19.4 49 8.4         1437.96
2017-Jul-20 04:01:46 1008.900 18.2 54 8.7         1437.96
2017-Jul-20 05:01:42 1008.600 17.6 57 8.9         1437.96
2017-Jul-20 06:01:38 1008.400 16.6 61 9.1         1437.96
2017-Jul-20 07:01:31 1008.700 15.6 63 8.6         1437.96
2017-Jul-20 08:01:53 1009.100 17.4 66 11.0         1437.96
2017-Jul-20 09:01:30 1009.200 22.9 53 13.0         1437.96
2017-Jul-20 10:01:16 1009.100 26.4 42 12.3         1437.96
2017-Jul-20 11:01:19 1009.200 29.9 34 12.7         1437.96
2017-Jul-20 12:01:30 1009.300 32.1 29 11.8         1437.96
2017-Jul-20 13:01:36 1008.600 34.2 26 11.7         1437.96
2017-Jul-20 14:01:47 1007.900 34.1 24 10.4         1437.96
2017-Jul-20 15:01:49 1007.300 34.4 21 8.8         1437.96
2017-Jul-20 16:01:52 1006.900 35.6 19 8.2         1437.96
2017-Jul-20 17:01:55 1006.200 37.6 18 8.9         1437.96
2017-Jul-20 18:01:52 1006.100 35.5 19 8.2         1437.96
2017-Jul-20 19:01:53 1006.100 29.4 34 11.8         1437.96
2017-Jul-20 20:01:51 1006.700 27.9 40 13.1         1437.96
2017-Jul-20 21:01:52 1006.900 25.7 43 12.1         1437.96
2017-Jul-20 22:01:54 1007.000 23.8 48 12.1         1437.96
2017-Jul-20 23:01:45 1007.800 21.6 53 11.6         1437.96

Temperatura Máxima:37°    Temperatura Mínima:15°
Presión Máxima:1009.500 Hpa    Presión Mínima:1006.100 Hpa


Volver